createdAt,value
2022-12-24T00:00:37.336Z,9.1
2022-12-24T00:02:38.697Z,9
2022-12-24T00:04:39.967Z,9
2022-12-24T00:06:44.642Z,9
2022-12-24T00:08:45.993Z,9
2022-12-24T00:10:47.361Z,9
2022-12-24T00:13:51.075Z,9
2022-12-24T00:15:52.424Z,9
2022-12-24T00:17:53.756Z,9
2022-12-24T00:19:58.419Z,9
2022-12-24T00:21:59.810Z,9
2022-12-24T00:24:01.182Z,9
2022-12-24T00:26:02.514Z,9
2022-12-24T00:28:03.885Z,9
2022-12-24T00:30:05.272Z,9
2022-12-24T00:32:06.652Z,9
2022-12-24T00:38:14.031Z,9
2022-12-24T01:11:01.765Z,9
2022-12-24T01:13:03.103Z,9
2022-12-24T01:15:07.812Z,9
2022-12-24T01:19:10.545Z,9
2022-12-24T01:21:11.863Z,9
2022-12-24T01:23:13.248Z,9
2022-12-24T01:25:14.603Z,9
2022-12-24T01:27:15.997Z,9
2022-12-24T01:29:20.645Z,9.1
2022-12-24T01:31:22.035Z,9
2022-12-24T01:33:23.337Z,9
2022-12-24T01:35:24.723Z,9
2022-12-24T01:37:26.128Z,8.9
2022-12-24T01:39:27.454Z,8.9
2022-12-24T01:41:28.835Z,8.8
2022-12-24T01:43:33.516Z,8.8
2022-12-24T01:45:34.927Z,8.8
2022-12-24T01:49:37.593Z,8.7
2022-12-24T01:57:46.334Z,8.6
2022-12-24T02:04:52.729Z,8.5
2022-12-24T02:15:02.842Z,8.4
2022-12-24T02:19:05.562Z,8.5
2022-12-24T02:21:06.922Z,8.4
2022-12-24T02:23:08.278Z,8.4
2022-12-24T02:25:12.949Z,8.3
2022-12-24T02:27:14.277Z,8.3
2022-12-24T02:29:15.672Z,8.3
2022-12-24T02:31:17.210Z,8.3
2022-12-24T02:33:18.391Z,8.3
2022-12-24T02:35:19.781Z,8.2
2022-12-24T02:37:21.067Z,8.2
2022-12-24T02:39:25.740Z,8.2
2022-12-24T02:41:27.141Z,8.2
2022-12-24T02:43:28.494Z,8.2
2022-12-24T02:45:29.839Z,8.2
2022-12-24T02:47:34.206Z,8.2
2022-12-24T02:49:32.542Z,8.2
2022-12-24T02:53:38.555Z,8.1
2022-12-24T02:55:39.879Z,8.1
2022-12-24T02:57:41.244Z,8.1
2022-12-24T03:10:55.031Z,8
2022-12-24T03:12:56.373Z,8
2022-12-24T03:14:57.724Z,7.9
2022-12-24T03:16:59.100Z,7.9
2022-12-24T03:21:05.123Z,7.9
2022-12-24T03:23:06.491Z,7.9
2022-12-24T03:25:07.821Z,7.9
2022-12-24T03:27:09.153Z,7.9
2022-12-24T03:31:11.961Z,7.9
2022-12-24T03:33:13.208Z,7.9
2022-12-24T03:41:21.929Z,7.9
2022-12-24T03:43:23.268Z,7.9
2022-12-24T03:51:31.994Z,7.8
2022-12-24T03:53:33.358Z,7.8
2022-12-24T03:54:35.685Z,7.9
2022-12-24T03:56:37.055Z,7.8
2022-12-24T03:58:38.427Z,7.8
2022-12-24T04:00:39.786Z,7.9
2022-12-24T04:02:44.518Z,7.9
2022-12-24T04:04:45.746Z,8
2022-12-24T04:06:47.094Z,8.1
2022-12-24T04:08:48.456Z,8.1
2022-12-24T04:10:49.797Z,8.1
2022-12-24T04:12:51.158Z,8.1
2022-12-24T04:14:52.540Z,8.2
2022-12-24T04:16:57.211Z,8.3
2022-12-24T04:23:01.231Z,8.2
2022-12-24T04:25:02.605Z,8.2
2022-12-24T04:27:04.016Z,8.2
2022-12-24T04:29:05.273Z,8.2
2022-12-24T04:35:12.664Z,8.3
2022-12-24T04:37:14.004Z,8.4
2022-12-24T04:39:15.300Z,8.4
2022-12-24T04:41:22.678Z,8.4
2022-12-24T04:43:18.054Z,8.5
2022-12-24T04:45:22.695Z,8.5
2022-12-24T04:47:24.052Z,8.6
2022-12-24T04:49:25.392Z,8.6
2022-12-24T04:51:54.312Z,8.7
2022-12-24T04:53:55.669Z,8.7
2022-12-24T04:55:57.025Z,8.7
2022-12-24T04:58:01.691Z,8.8
2022-12-24T05:00:03.033Z,8.7
2022-12-24T05:02:04.664Z,8.7
2022-12-24T05:04:05.755Z,8.8
2022-12-24T05:06:07.158Z,8.8
2022-12-24T05:08:08.486Z,8.8
2022-12-24T05:10:09.852Z,8.9
2022-12-24T05:12:14.483Z,8.9
2022-12-24T05:14:15.865Z,8.8
2022-12-24T05:16:17.338Z,8.9
2022-12-24T05:18:18.571Z,8.8
2022-12-24T05:20:19.945Z,8.8
2022-12-24T05:24:22.643Z,8.9
2022-12-24T05:32:31.395Z,9
2022-12-24T05:34:32.844Z,9
2022-12-24T05:36:34.111Z,8.9
2022-12-24T05:38:35.456Z,8.9
2022-12-24T05:40:40.147Z,9
2022-12-24T05:42:41.473Z,9.1
2022-12-24T05:44:42.855Z,9.1
2022-12-24T05:45:45.218Z,9.3
2022-12-24T05:47:48.116Z,9.2
2022-12-24T05:53:55.472Z,9.4
2022-12-24T05:55:56.834Z,9.5
2022-12-24T05:57:58.185Z,9.5
2022-12-24T06:04:02.327Z,9.4
2022-12-24T06:06:03.613Z,9.4
2022-12-24T06:08:08.276Z,9.3
2022-12-24T06:16:13.788Z,9.4
2022-12-24T06:20:16.457Z,9.5
2022-12-24T06:24:22.460Z,9.5
2022-12-24T06:26:23.859Z,9.5
2022-12-24T06:28:25.198Z,9.6
2022-12-24T06:30:26.539Z,9.5
2022-12-24T06:32:27.934Z,9.5
2022-12-24T06:34:29.296Z,9.6
2022-12-24T06:36:33.966Z,9.6
2022-12-24T06:38:35.336Z,9.6
2022-12-24T06:40:36.697Z,9.7
2022-12-24T06:41:39.064Z,9.7
2022-12-24T06:43:40.385Z,9.5
2022-12-24T06:45:41.751Z,9.4
2022-12-24T06:47:43.106Z,9.4
2022-12-24T06:49:47.783Z,9.3
2022-12-24T06:51:49.132Z,9.4
2022-12-24T06:53:50.548Z,9.4
2022-12-24T06:55:51.862Z,9.4
2022-12-24T06:57:53.263Z,9.4
2022-12-24T06:59:54.608Z,9.5
2022-12-24T07:01:56.184Z,9.5
2022-12-24T07:04:00.716Z,9.5
2022-12-24T07:06:02.025Z,9.5
2022-12-24T07:08:03.373Z,9.5
2022-12-24T07:10:04.743Z,9.5
2022-12-24T07:12:06.110Z,9.5
2022-12-24T07:14:07.453Z,9.6
2022-12-24T07:16:09.071Z,9.7
2022-12-24T07:18:13.507Z,9.7
2022-12-24T07:20:15.120Z,9.8
2022-12-24T07:22:16.158Z,9.8
2022-12-24T07:24:17.518Z,9.8
2022-12-24T07:26:18.859Z,9.9
2022-12-24T07:28:27.200Z,9.8
2022-12-24T07:30:21.623Z,9.9
2022-12-24T07:32:26.304Z,9.9
2022-12-24T07:34:27.674Z,9.9
2022-12-24T07:36:29.076Z,9.9
2022-12-24T07:37:31.420Z,10
2022-12-24T07:39:32.761Z,10
2022-12-24T07:41:41.372Z,10.1
2022-12-24T07:45:40.129Z,10
2022-12-24T07:47:41.481Z,10
2022-12-24T07:49:42.854Z,10
2022-12-24T07:55:46.966Z,9.9
2022-12-24T07:57:48.320Z,10
2022-12-24T08:12:01.184Z,10
2022-12-24T08:14:05.862Z,10
2022-12-24T08:16:07.257Z,10
2022-12-24T08:18:08.593Z,10.1
2022-12-24T08:20:09.961Z,10.1
2022-12-24T08:22:11.281Z,10
2022-12-24T08:24:12.646Z,10
2022-12-24T08:26:14.026Z,10
2022-12-24T08:28:18.694Z,10.1
2022-12-24T08:30:21.599Z,10.1
2022-12-24T08:32:21.427Z,10
2022-12-24T08:34:44.344Z,10
2022-12-24T08:36:45.683Z,10
2022-12-24T08:40:51.745Z,10
2022-12-24T08:42:53.246Z,10
2022-12-24T08:44:54.471Z,10
2022-12-24T08:46:55.842Z,10.1
2022-12-24T08:48:57.192Z,10.1
2022-12-24T08:50:58.554Z,10.1
2022-12-24T08:52:59.987Z,10.1
2022-12-24T08:55:04.699Z,10.1
2022-12-24T08:57:06.010Z,10.1
2022-12-24T08:59:07.372Z,10.1
2022-12-24T09:01:08.845Z,10.1
2022-12-24T09:03:10.179Z,10.1
2022-12-24T09:05:11.460Z,10.2
2022-12-24T09:07:12.839Z,10.2
2022-12-24T09:13:20.258Z,10.2
2022-12-24T09:15:21.665Z,10.2
2022-12-24T09:17:23.041Z,10.2
2022-12-24T09:21:25.753Z,10.2
2022-12-24T09:23:30.418Z,10.2
2022-12-24T09:25:31.789Z,10.2
2022-12-24T09:27:33.150Z,10.2
2022-12-24T09:28:35.436Z,10.2
2022-12-24T09:30:36.841Z,10.2
2022-12-24T09:32:38.210Z,10.3
2022-12-24T09:34:39.573Z,10.3
2022-12-24T09:36:44.231Z,10.3
2022-12-24T09:38:45.652Z,10.3
2022-12-24T09:40:46.958Z,10.3
2022-12-24T09:42:48.355Z,10.3
2022-12-24T09:44:49.714Z,10.2
2022-12-24T09:46:51.095Z,10.2
2022-12-24T09:48:52.459Z,10.3
2022-12-24T09:50:57.132Z,10.3
2022-12-24T09:52:58.516Z,10.3
2022-12-24T09:54:59.852Z,10.3
2022-12-24T09:57:01.229Z,10.4
2022-12-24T09:59:02.612Z,10.4
2022-12-24T10:03:05.359Z,10.3
2022-12-24T10:05:10.023Z,10.3
2022-12-24T10:07:11.414Z,10.3
2022-12-24T10:09:12.764Z,10.3
2022-12-24T10:13:15.452Z,10.4
2022-12-24T10:17:18.298Z,10.5
2022-12-24T10:19:22.864Z,10.4
2022-12-24T10:21:24.214Z,10.4
2022-12-24T10:23:25.571Z,10.5
2022-12-24T10:24:27.927Z,10.5
2022-12-24T10:26:29.301Z,10.5
2022-12-24T10:28:30.672Z,10.6
2022-12-24T10:30:32.084Z,10.6
2022-12-24T10:32:36.668Z,10.6
2022-12-24T10:34:38.097Z,10.7
2022-12-24T10:36:39.426Z,10.8
2022-12-24T10:38:40.776Z,10.8
2022-12-24T10:40:42.178Z,10.7
2022-12-24T10:42:50.723Z,10.7
2022-12-24T10:44:44.887Z,10.7
2022-12-24T10:46:49.561Z,10.7
2022-12-24T10:50:52.274Z,10.7
2022-12-24T10:52:53.645Z,10.8
2022-12-24T11:01:02.698Z,11
2022-12-24T11:03:03.985Z,10.9
2022-12-24T11:05:05.209Z,11
2022-12-24T11:09:07.912Z,10.6
2022-12-24T11:13:36.844Z,10.5
2022-12-24T11:20:20.396Z,10.5
2022-12-24T11:22:21.764Z,10.6
2022-12-24T11:24:23.133Z,10.6
2022-12-24T11:26:24.514Z,10.6
2022-12-24T11:28:29.150Z,10.5
2022-12-24T11:30:30.495Z,10.5
2022-12-24T11:32:31.902Z,10.5
2022-12-24T11:34:33.251Z,10.5
2022-12-24T11:36:34.628Z,10.6
2022-12-24T11:38:37.550Z,10.7
2022-12-24T11:40:38.866Z,10.8
2022-12-24T11:42:43.603Z,10.7
2022-12-24T11:44:44.944Z,10.6
2022-12-24T11:48:47.648Z,10.4
2022-12-24T11:50:49.033Z,10.4
2022-12-24T11:52:50.401Z,10.2
2022-12-24T11:54:51.751Z,10.2
2022-12-24T11:56:56.431Z,10.3
2022-12-24T11:58:57.823Z,10.3
2022-12-24T12:00:59.172Z,10.3
2022-12-24T12:03:00.627Z,10.4
2022-12-24T12:05:01.933Z,10.5
2022-12-24T12:07:03.284Z,10.7
2022-12-24T12:09:04.698Z,10.8
2022-12-24T12:11:09.334Z,10.9
2022-12-24T12:13:14.949Z,10.8
2022-12-24T12:15:12.067Z,10.8
2022-12-24T12:17:40.784Z,10.9
2022-12-24T12:19:42.145Z,11
2022-12-24T12:25:49.633Z,10.8
2022-12-24T12:27:50.990Z,10.8
2022-12-24T12:29:52.376Z,10.7
2022-12-24T12:33:55.081Z,10.7
2022-12-24T12:35:56.407Z,10.7
2022-12-24T12:38:01.124Z,10.7
2022-12-24T12:40:02.618Z,10.7
2022-12-24T12:42:03.821Z,10.7
2022-12-24T12:44:05.179Z,10.6
2022-12-24T12:46:06.722Z,10.6
2022-12-24T12:48:07.975Z,10.6
2022-12-24T12:50:09.298Z,10.6
2022-12-24T12:52:14.000Z,10.7
2022-12-24T12:54:15.337Z,10.7
2022-12-24T12:56:16.702Z,10.8
2022-12-24T12:58:18.107Z,10.8
2022-12-24T13:00:19.452Z,10.9
2022-12-24T13:02:21.030Z,11
2022-12-24T13:04:22.202Z,11.1
2022-12-24T13:06:27.033Z,11
2022-12-24T13:08:28.215Z,11
2022-12-24T13:10:29.579Z,11
2022-12-24T13:11:31.973Z,11.1
2022-12-24T13:13:33.298Z,11.2
2022-12-24T13:15:35.065Z,10.9
2022-12-24T13:17:36.409Z,10.9
2022-12-24T13:19:41.093Z,10.8
2022-12-24T13:21:42.471Z,10.8
2022-12-24T13:25:45.153Z,11
2022-12-24T13:27:46.504Z,10.9
2022-12-24T13:29:47.902Z,11
2022-12-24T13:31:49.290Z,11.1
2022-12-24T13:33:53.961Z,11.1
2022-12-24T13:35:55.289Z,11.1
2022-12-24T13:37:56.664Z,11.2
2022-12-24T13:39:58.045Z,11
2022-12-24T13:41:59.407Z,11
2022-12-24T13:44:00.768Z,10.9
2022-12-24T13:46:02.203Z,10.9
2022-12-24T13:48:06.784Z,10.8
2022-12-24T13:50:08.233Z,10.9
2022-12-24T13:52:09.532Z,10.8
2022-12-24T13:54:10.899Z,10.6
2022-12-24T13:58:13.671Z,10.6
2022-12-24T14:00:15.049Z,10.6
2022-12-24T14:04:21.066Z,10.4
2022-12-24T14:06:22.432Z,10.4
2022-12-24T14:07:24.788Z,10.3
2022-12-24T14:09:26.161Z,10.3
2022-12-24T14:11:30.248Z,10.2
2022-12-24T14:13:28.916Z,10.2
2022-12-24T14:15:33.560Z,10.3
2022-12-24T14:17:34.931Z,10.3
2022-12-24T14:19:37.770Z,10.2
2022-12-24T14:21:37.669Z,10.1
2022-12-24T14:23:39.042Z,10.1
2022-12-24T14:25:40.406Z,10.1
2022-12-24T14:27:41.785Z,10.2
2022-12-24T14:31:47.913Z,10.1
2022-12-24T14:33:49.216Z,10.2
2022-12-24T14:35:50.582Z,10.1
2022-12-24T14:37:51.957Z,10
2022-12-24T14:39:53.298Z,10
2022-12-24T14:41:54.656Z,10
2022-12-24T14:46:00.744Z,10
2022-12-24T14:48:02.107Z,10.2
2022-12-24T14:50:03.524Z,10.3
2022-12-24T14:52:04.817Z,10.2
2022-12-24T14:56:07.571Z,10.1
2022-12-24T14:58:12.242Z,9.9
2022-12-24T15:00:13.611Z,9.9
2022-12-24T15:07:20.085Z,9.8
2022-12-24T15:09:21.454Z,9.6
2022-12-24T15:11:26.121Z,9.5
2022-12-24T15:13:27.476Z,9.4
2022-12-24T15:15:28.830Z,9.4
2022-12-24T15:17:30.220Z,9.4
2022-12-24T15:19:31.570Z,9.2
2022-12-24T15:21:32.950Z,9.2
2022-12-24T15:23:34.287Z,9
2022-12-24T15:25:38.998Z,9.1
2022-12-24T15:27:40.371Z,9.1
2022-12-24T15:29:41.688Z,9
2022-12-24T15:31:43.067Z,9
2022-12-24T15:39:51.824Z,8.8
2022-12-24T15:41:53.165Z,8.7
2022-12-24T15:43:54.554Z,8.6
2022-12-24T15:45:55.978Z,8.4
2022-12-24T15:47:57.284Z,8.2
2022-12-24T15:49:58.618Z,8.3
2022-12-24T15:51:59.967Z,8.4
2022-12-24T15:54:04.629Z,8.2
2022-12-24T15:56:05.977Z,8.1
2022-12-24T15:58:07.352Z,8.3
2022-12-24T16:00:36.227Z,8.2
2022-12-24T16:02:37.905Z,8.2
2022-12-24T16:04:38.943Z,8.3
2022-12-24T16:06:43.564Z,8.3
2022-12-24T16:08:44.931Z,8.4
2022-12-24T16:10:46.308Z,8.3
2022-12-24T16:12:47.662Z,8.3
2022-12-24T16:14:48.997Z,8.2
2022-12-24T16:16:50.334Z,8.2
2022-12-24T16:18:51.725Z,8.2
2022-12-24T16:20:56.383Z,8.2
2022-12-24T16:27:00.400Z,8.3
2022-12-24T16:29:01.805Z,8.3
2022-12-24T16:31:03.197Z,8.2
2022-12-24T16:33:04.492Z,8.2
2022-12-24T16:35:09.127Z,8.2
2022-12-24T16:37:10.498Z,8.1
2022-12-24T16:39:11.826Z,8.1
2022-12-24T16:43:14.589Z,7.9
2022-12-24T16:49:21.917Z,7.5
2022-12-24T16:51:23.256Z,7.5
2022-12-24T16:53:24.620Z,7.5
2022-12-24T17:00:31.025Z,7.3
2022-12-24T17:02:36.115Z,7.1
2022-12-24T17:04:37.045Z,7.1
2022-12-24T17:08:39.749Z,7
2022-12-24T17:10:41.101Z,6.9
2022-12-24T17:12:42.453Z,7
2022-12-24T17:14:43.807Z,7
2022-12-24T17:16:48.455Z,6.9
2022-12-24T17:20:51.175Z,7.1
2022-12-24T17:22:52.570Z,7.1
2022-12-24T17:24:53.941Z,7.1
2022-12-24T17:26:55.308Z,7.2
2022-12-24T17:28:58.219Z,7.2
2022-12-24T17:31:02.927Z,7.1
2022-12-24T17:33:08.040Z,7
2022-12-24T17:35:05.583Z,6.9
2022-12-24T17:37:06.868Z,6.7
2022-12-24T17:39:08.202Z,6.7
2022-12-24T17:41:09.590Z,6.7
2022-12-24T17:43:10.904Z,6.5
2022-12-24T17:45:15.582Z,6.5
2022-12-24T17:47:16.920Z,6.7
2022-12-24T17:50:20.627Z,6.7
2022-12-24T17:52:21.954Z,6.7
2022-12-24T17:54:23.262Z,6.7
2022-12-24T17:56:24.640Z,6.8
2022-12-24T17:58:29.306Z,6.7
2022-12-24T18:00:33.155Z,6.7
2022-12-24T18:02:32.088Z,6.6
2022-12-24T18:04:33.257Z,6.4
2022-12-24T18:08:36.039Z,6.4
2022-12-24T18:10:37.407Z,6.3
2022-12-24T18:12:42.052Z,6.3
2022-12-24T18:14:43.388Z,6.2
2022-12-24T18:20:47.405Z,6.3
2022-12-24T18:22:48.748Z,6.4
2022-12-24T18:24:50.085Z,6.3
2022-12-24T18:26:54.705Z,6.1
2022-12-24T18:28:56.051Z,6
2022-12-24T18:30:57.420Z,5.8
2022-12-24T18:32:58.775Z,5.8
2022-12-24T18:35:00.116Z,5.7
2022-12-24T18:37:01.418Z,5.6
2022-12-24T18:39:02.745Z,5.9
2022-12-24T18:41:07.360Z,5.8
2022-12-24T18:46:12.440Z,5.7
2022-12-24T18:48:13.669Z,5.8
2022-12-24T18:50:14.999Z,6
2022-12-24T18:52:20.922Z,5.7
2022-12-24T18:54:20.988Z,5.9
2022-12-24T18:56:22.325Z,5.8
2022-12-24T19:00:25.149Z,5.7
2022-12-24T19:02:26.474Z,5.6
2022-12-24T19:04:27.688Z,5.3
2022-12-24T19:06:29.071Z,5
2022-12-24T19:08:57.839Z,5.1
2022-12-24T19:10:35.029Z,5.1
2022-12-24T19:12:36.443Z,5.5
2022-12-24T19:14:37.760Z,5.7
2022-12-24T19:16:39.304Z,5.9
2022-12-24T19:18:40.417Z,5.9
2022-12-24T19:20:41.749Z,5.9
2022-12-24T19:22:46.360Z,6.3
2022-12-24T19:24:47.683Z,6.3
2022-12-24T19:26:49.020Z,6.3
2022-12-24T19:28:50.349Z,6.4
2022-12-24T19:30:51.668Z,6.3
2022-12-24T19:32:53.002Z,6.3
2022-12-24T19:34:54.336Z,6.5
2022-12-24T19:41:01.611Z,6.5
2022-12-24T19:43:24.414Z,6.5
2022-12-24T19:45:25.769Z,6.5
2022-12-24T19:49:31.757Z,6.7
2022-12-24T19:51:33.186Z,6.6
2022-12-24T19:53:34.508Z,6.7
2022-12-24T19:55:35.841Z,6.5
2022-12-24T19:57:37.175Z,6.6
2022-12-24T19:59:38.547Z,6.8
2022-12-24T20:07:47.183Z,7
2022-12-24T20:13:51.232Z,7
2022-12-24T20:15:52.551Z,7.1
2022-12-24T20:17:57.194Z,7
2022-12-24T20:21:59.882Z,7
2022-12-24T20:24:01.281Z,7.1
2022-12-24T20:26:02.566Z,7.1
2022-12-24T20:28:03.905Z,7
2022-12-24T20:30:05.256Z,7.1
2022-12-24T20:32:09.926Z,7.2
2022-12-24T20:34:11.253Z,7.2
2022-12-24T20:36:12.571Z,7.2
2022-12-24T20:37:14.921Z,7.4
2022-12-24T20:39:16.252Z,7.3
2022-12-24T20:41:17.626Z,7.4
2022-12-24T20:43:23.859Z,7.4
2022-12-24T20:47:24.945Z,7.6
2022-12-24T20:49:26.302Z,7.6
2022-12-24T20:51:27.667Z,7.6
2022-12-24T20:53:29.033Z,7.6
2022-12-24T20:55:30.348Z,7.5
2022-12-24T20:57:36.097Z,7.6
2022-12-24T20:59:36.386Z,7.6
2022-12-24T21:05:40.590Z,7.7
2022-12-24T21:07:41.786Z,7.7
2022-12-24T21:09:43.149Z,7.6
2022-12-24T21:13:49.123Z,7.8
2022-12-24T21:15:50.569Z,7.9
2022-12-24T21:17:51.797Z,7.8
2022-12-24T21:19:53.178Z,7.8
2022-12-24T21:21:54.516Z,7.8
2022-12-24T21:23:55.886Z,7.7
2022-12-24T21:25:57.376Z,7.8
2022-12-24T21:28:01.851Z,7.9
2022-12-24T21:30:03.197Z,7.9
2022-12-24T21:32:04.578Z,7.9
2022-12-24T21:33:06.898Z,7.8
2022-12-24T21:35:08.243Z,7.9
2022-12-24T21:37:09.595Z,7.8
2022-12-24T21:39:10.948Z,7.8
2022-12-24T21:41:15.606Z,7.7
2022-12-24T21:45:18.323Z,7.8
2022-12-24T21:47:19.695Z,7.7
2022-12-24T21:49:21.038Z,7.7
2022-12-24T21:51:22.396Z,7.7
2022-12-24T21:53:23.758Z,7.8
2022-12-24T21:55:28.433Z,7.6
2022-12-24T21:57:29.752Z,7.6
2022-12-24T21:59:31.131Z,7.7
2022-12-24T22:01:32.544Z,7.6
2022-12-24T22:03:33.853Z,7.6
2022-12-24T22:05:35.151Z,7.6
2022-12-24T22:09:41.206Z,7.6
2022-12-24T22:11:42.551Z,7.6
2022-12-24T22:13:43.896Z,7.6
2022-12-24T22:15:45.255Z,7.6
2022-12-24T22:17:46.591Z,7.7
2022-12-24T22:19:47.962Z,7.6
2022-12-24T22:21:49.287Z,7.5
2022-12-24T22:23:53.955Z,7.5
2022-12-24T22:25:55.274Z,7.5
2022-12-24T22:27:56.669Z,7.4
2022-12-24T22:31:00.422Z,7.4
2022-12-24T22:33:01.657Z,7.3
2022-12-24T22:41:10.376Z,7.2
2022-12-24T22:43:11.716Z,7.2
2022-12-24T22:49:15.764Z,7.1
2022-12-24T22:51:20.415Z,7.3
2022-12-24T22:53:21.743Z,7.2
2022-12-24T22:55:23.149Z,7.2
2022-12-24T22:59:25.851Z,7
2022-12-24T23:01:27.310Z,7.1
2022-12-24T23:03:28.728Z,7.1
2022-12-24T23:05:33.224Z,7.1
2022-12-24T23:07:34.471Z,7.1
2022-12-24T23:09:35.837Z,7.1
2022-12-24T23:11:37.209Z,7.1
2022-12-24T23:13:38.495Z,7
2022-12-24T23:15:39.955Z,7.1
2022-12-24T23:17:41.276Z,7.1
2022-12-24T23:19:47.415Z,7
2022-12-24T23:21:48.779Z,7
2022-12-24T23:23:50.154Z,7.1
2022-12-24T23:26:16.805Z,6.9
2022-12-24T23:28:18.141Z,7
2022-12-24T23:30:19.488Z,7
2022-12-24T23:32:24.164Z,6.9
2022-12-24T23:34:25.486Z,6.8
2022-12-24T23:38:28.185Z,7
2022-12-24T23:40:29.570Z,7
2022-12-24T23:42:30.852Z,6.9
2022-12-24T23:44:32.891Z,6.9
2022-12-24T23:52:40.919Z,7
2022-12-24T23:54:42.271Z,6.9
2022-12-24T23:56:43.652Z,7
2022-12-24T23:58:44.970Z,7
